Terminal Aerodrome Forecast
Issued by NWS

Home | Current Version | Previous Version | Text Only | Print | Product List | Glossary On
Versions: 1 2 3 4 5 6 7 8 9 10 11 12 13 14 15 16 17 18 19 20 21 22 23 24 25 26 27 28
088
FTUS45 KSLC 280531
TAFBCE
TAF
KBCE 280531Z 2806/2906 26008KT 6SM FU BKN050
     FM281600 14011KT P6SM FEW070
     FM282000 24015G25KT P6SM FEW090=

USA.gov is the U.S. government's official web portal to all federal, state and local government web resources and services.